createdAt,value
2022-07-27T00:04:13.542Z,92.11
2022-07-27T00:09:15.996Z,92.96
2022-07-27T00:14:15.311Z,92.56
2022-07-27T00:19:16.571Z,92.52
2022-07-27T00:24:18.694Z,91.91
2022-07-27T00:29:17.818Z,93.02
2022-07-27T00:34:20.916Z,93.37
2022-07-27T00:39:21.043Z,94.27
2022-07-27T00:44:20.206Z,95.62
2022-07-27T00:49:21.435Z,95.22
2022-07-27T00:54:22.592Z,94.42
2022-07-27T00:59:23.703Z,95.37
2022-07-27T01:04:24.815Z,96.48
2022-07-27T01:09:24.606Z,95.73
2022-07-27T01:14:27.975Z,96.08
2022-07-27T01:19:25.948Z,96.58
2022-07-27T01:24:27.061Z,95.97
2022-07-27T01:29:29.242Z,95.27
2022-07-27T01:34:28.344Z,95.62
2022-07-27T01:39:30.497Z,95.17
2022-07-27T01:44:29.604Z,94.42
2022-07-27T01:49:30.745Z,94.52
2022-07-27T01:54:32.000Z,93.46
2022-07-27T01:59:32.126Z,94.82
2022-07-27T02:04:31.232Z,95.22
2022-07-27T02:09:32.375Z,95.83
2022-07-27T02:14:33.507Z,94.87
2022-07-27T02:19:35.626Z,94.73
2022-07-27T02:24:34.729Z,94.83
2022-07-27T02:29:35.894Z,93.52
2022-07-27T02:34:37.049Z,94.63
2022-07-27T02:39:38.231Z,95.03
2022-07-27T02:44:40.330Z,95.43
2022-07-27T02:49:40.478Z,95.64
2022-07-27T02:54:39.606Z,95.13
2022-07-27T02:59:42.754Z,95.33
2022-07-27T03:04:42.943Z,95.64
2022-07-27T03:09:42.133Z,95.79
2022-07-27T03:14:44.285Z,95.99
2022-07-27T03:19:42.401Z,96.09
2022-07-27T03:24:44.621Z,93.08
2022-07-27T03:29:44.756Z,94.79
2022-07-27T03:34:43.926Z,94.98
2022-07-27T03:39:45.035Z,94.28
2022-07-27T03:44:46.144Z,93.88
2022-07-27T03:49:48.267Z,92.27
2022-07-27T03:54:47.384Z,92.07
2022-07-27T03:59:48.544Z,91.77
2022-07-27T04:04:51.646Z,91.77
2022-07-27T04:09:52.765Z,89.66
2022-07-27T04:14:51.873Z,89.01
2022-07-27T04:19:54.984Z,89.62
2022-07-27T04:24:55.091Z,88.71
2022-07-27T04:29:54.193Z,89.31
2022-07-27T04:34:56.289Z,88.81
2022-07-27T04:39:55.396Z,86.90
2022-07-27T04:44:56.487Z,83.09
2022-07-27T04:49:58.592Z,83.85
2022-07-27T04:54:58.706Z,80.74
2022-07-27T04:59:57.825Z,80.90
2022-07-27T05:05:00.940Z,79.49
2022-07-27T05:10:00.064Z,80.26
2022-07-27T05:15:02.170Z,78.96
2022-07-27T05:20:03.330Z,82.06
2022-07-27T05:25:03.461Z,81.88
2022-07-27T05:30:02.595Z,82.05
2022-07-27T05:35:03.680Z,81.02
2022-07-27T05:40:04.792Z,76.47
2022-07-27T05:45:05.916Z,74.30
2022-07-27T05:50:10.028Z,74.97
2022-07-27T05:55:11.163Z,73.07
2022-07-27T06:00:09.272Z,73.43
2022-07-27T06:05:15.045Z,73.13
2022-07-27T06:10:09.330Z,71.73
2022-07-27T06:15:08.436Z,70.73
2022-07-27T06:20:09.624Z,70.83
2022-07-27T06:25:10.732Z,71.19
2022-07-27T06:30:12.864Z,70.59
2022-07-27T06:35:12.974Z,69.49
2022-07-27T06:40:13.171Z,70.12
2022-07-27T06:45:13.380Z,71.23
2022-07-27T06:50:14.511Z,71.09
2022-07-27T06:55:13.595Z,71.09
2022-07-27T07:00:15.716Z,72.60
2022-07-27T07:05:14.820Z,70.69
2022-07-27T07:10:15.970Z,70.89
2022-07-27T07:15:17.082Z,71.09
2022-07-27T07:20:18.199Z,70.59
2022-07-27T07:25:20.321Z,70.09
2022-07-27T07:30:20.426Z,70.46
2022-07-27T07:35:19.537Z,69.12
2022-07-27T07:45:21.675Z,67.76
2022-07-27T07:50:20.891Z,69.16
2022-07-27T07:55:22.022Z,68.49
2022-07-27T08:00:24.336Z,66.39
2022-07-27T08:05:23.448Z,66.23
2022-07-27T08:10:23.593Z,66.73
2022-07-27T08:15:29.751Z,66.46
2022-07-27T08:20:26.695Z,67.83
2022-07-27T08:25:25.939Z,65.30
2022-07-27T08:30:27.119Z,64.11
2022-07-27T08:35:27.516Z,64.84
2022-07-27T08:40:39.564Z,64.04
2022-07-27T08:45:27.646Z,64.07
2022-07-27T08:50:29.766Z,64.30
2022-07-27T08:55:29.874Z,62.48
2022-07-27T09:00:29.074Z,60.46
2022-07-27T09:05:36.728Z,59.34
2022-07-27T09:10:31.198Z,59.68
2022-07-27T09:15:38.694Z,60.27
2022-07-27T09:20:30.302Z,60.24
2022-07-27T09:26:02.925Z,60.21
2022-07-27T09:30:31.512Z,58.33
2022-07-27T09:35:32.694Z,58.61
2022-07-27T09:40:35.870Z,59.61
2022-07-27T09:45:34.169Z,61.20
2022-07-27T09:50:35.791Z,61.10
2022-07-27T09:55:33.230Z,59.55
2022-07-27T10:00:34.452Z,61.80
2022-07-27T10:05:35.567Z,60.80
2022-07-27T10:10:36.697Z,60.17
2022-07-27T10:15:38.069Z,57.69
2022-07-27T10:20:40.233Z,60.50
2022-07-27T10:25:41.358Z,58.74
2022-07-27T10:30:40.675Z,59.34
2022-07-27T10:35:41.913Z,59.85
2022-07-27T10:40:42.031Z,58.88
2022-07-27T10:46:00.207Z,59.45
2022-07-27T10:50:42.161Z,60.25
2022-07-27T10:55:45.262Z,59.58
2022-07-27T11:00:53.131Z,58.06
2022-07-27T11:06:00.398Z,59.15
2022-07-27T11:10:47.466Z,58.53
2022-07-27T11:15:47.005Z,60.19
2022-07-27T11:20:48.173Z,58.10
2022-07-27T11:25:49.298Z,58.75
2022-07-27T11:30:50.563Z,60.58
2022-07-27T11:35:52.694Z,58.74
2022-07-27T11:40:56.970Z,59.69
2022-07-27T11:45:53.039Z,58.97
2022-07-27T11:50:53.202Z,57.98
2022-07-27T11:55:54.402Z,59.59
2022-07-27T12:00:55.574Z,59.61
2022-07-27T12:05:56.718Z,57.82
2022-07-27T12:10:57.873Z,56.40
2022-07-27T12:15:59.112Z,57.55
2022-07-27T12:21:01.290Z,56.08
2022-07-27T12:26:00.429Z,56.80
2022-07-27T12:31:01.621Z,56.49
2022-07-27T12:36:03.767Z,57.10
2022-07-27T12:41:03.995Z,56.35
2022-07-27T12:46:03.199Z,55.85
2022-07-27T12:51:05.389Z,55.88
2022-07-27T12:56:04.536Z,55.32
2022-07-27T13:01:05.760Z,53.67
2022-07-27T13:06:12.871Z,53.92
2022-07-27T13:11:07.014Z,53.45
2022-07-27T13:16:08.250Z,54.00
2022-07-27T13:21:10.405Z,55.61
2022-07-27T13:26:10.514Z,54.22
2022-07-27T13:31:09.691Z,54.27
2022-07-27T13:36:10.807Z,52.34
2022-07-27T13:41:10.919Z,52.91
2022-07-27T13:46:14.133Z,54.24
2022-07-27T13:51:15.248Z,53.60
2022-07-27T13:56:14.390Z,52.41
2022-07-27T14:01:14.730Z,54.47
2022-07-27T14:06:20.887Z,55.06
2022-07-27T14:11:15.985Z,54.77
2022-07-27T14:16:19.114Z,54.54
2022-07-27T14:21:17.265Z,53.65
2022-07-27T14:26:18.386Z,52.49
2022-07-27T14:31:19.864Z,52.19
2022-07-27T14:36:21.027Z,52.02
2022-07-27T14:41:23.144Z,54.24
2022-07-27T14:46:23.369Z,54.32
2022-07-27T14:51:21.491Z,52.24
2022-07-27T14:56:22.746Z,53.72
2022-07-27T15:01:23.961Z,52.73
2022-07-27T15:06:25.210Z,53.11
2022-07-27T15:11:27.358Z,52.56
2022-07-27T15:16:27.577Z,53.90
2022-07-27T15:21:26.672Z,54.00
2022-07-27T15:26:27.812Z,53.50
2022-07-27T15:31:28.974Z,52.88
2022-07-27T15:36:32.283Z,53.53
2022-07-27T15:41:31.651Z,53.75
2022-07-27T15:46:30.833Z,55.16
2022-07-27T15:51:32.955Z,54.99
2022-07-27T15:56:32.118Z,54.99
2022-07-27T16:01:36.035Z,55.68
2022-07-27T16:06:38.387Z,53.28
2022-07-27T16:11:34.257Z,53.97
2022-07-27T16:16:33.418Z,51.30
2022-07-27T16:21:55.005Z,51.40
2022-07-27T16:26:34.511Z,50.04
2022-07-27T16:31:35.767Z,50.34
2022-07-27T16:36:39.190Z,51.59
2022-07-27T16:41:44.270Z,50.26
2022-07-27T16:46:38.432Z,51.84
2022-07-27T16:51:37.536Z,52.61
2022-07-27T16:56:42.746Z,50.76
2022-07-27T17:01:40.975Z,49.74
2022-07-27T17:06:41.097Z,49.45
2022-07-27T17:11:41.219Z,50.68
2022-07-27T17:16:40.933Z,51.72
2022-07-27T17:21:42.157Z,50.07
2022-07-27T17:26:44.277Z,50.46
2022-07-27T17:31:44.495Z,49.50
2022-07-27T17:36:50.472Z,51.05
2022-07-27T17:41:44.590Z,52.09
2022-07-27T17:46:46.796Z,51.03
2022-07-27T17:51:55.126Z,50.12
2022-07-27T17:56:44.896Z,52.14
2022-07-27T18:01:48.577Z,54.32
2022-07-27T18:06:43.868Z,53.23
2022-07-27T18:11:44.990Z,54.64
2022-07-27T18:16:46.229Z,54.94
2022-07-27T18:21:48.342Z,54.14
2022-07-27T18:26:57.672Z,58.02
2022-07-27T18:31:51.532Z,57.69
2022-07-27T18:36:59.465Z,58.72
2022-07-27T18:41:51.584Z,59.63
2022-07-27T18:46:51.881Z,61.25
2022-07-27T18:51:50.993Z,61.71
2022-07-27T18:56:56.115Z,63.13
2022-07-27T19:01:54.381Z,63.36
2022-07-27T19:06:53.539Z,64.42
2022-07-27T19:12:09.535Z,64.81
2022-07-27T19:16:54.976Z,65.61
2022-07-27T19:21:56.111Z,65.47
2022-07-27T19:27:11.022Z,66.50
2022-07-27T19:32:19.902Z,69.59
2022-07-27T19:37:07.475Z,69.89
2022-07-27T19:41:59.998Z,70.86
2022-07-27T19:46:59.144Z,71.19
2022-07-27T19:52:00.336Z,70.39
2022-07-27T19:57:01.467Z,72.02
2022-07-27T20:02:03.730Z,73.96
2022-07-27T20:07:02.982Z,74.16
2022-07-27T20:12:04.152Z,75.49
2022-07-27T20:17:05.296Z,74.09
2022-07-27T20:22:06.418Z,74.13
2022-07-27T20:27:14.531Z,75.46
2022-07-27T20:32:08.733Z,76.50
2022-07-27T20:37:08.028Z,76.60
2022-07-27T20:42:09.121Z,77.50
2022-07-27T20:47:10.231Z,78.74
2022-07-27T20:52:11.337Z,80.85
2022-07-27T20:57:12.442Z,82.29
2022-07-27T21:02:13.734Z,83.03
2022-07-27T21:07:15.851Z,83.13
2022-07-27T21:12:14.974Z,82.63
2022-07-27T21:17:17.320Z,80.46
2022-07-27T21:22:16.500Z,84.27
2022-07-27T21:27:20.948Z,84.85
2022-07-27T21:32:19.222Z,84.25
2022-07-27T21:37:19.414Z,85.25
2022-07-27T21:42:19.538Z,84.25
2022-07-27T21:47:18.849Z,84.35
2022-07-27T21:52:20.988Z,84.75
2022-07-27T21:57:20.137Z,86.70
2022-07-27T22:02:21.396Z,87.85
2022-07-27T22:07:22.500Z,88.19
2022-07-27T22:12:23.611Z,87.59
2022-07-27T22:17:24.802Z,87.29
2022-07-27T22:22:25.914Z,87.19
2022-07-27T22:27:27.150Z,86.12
2022-07-27T22:32:28.280Z,85.68
2022-07-27T22:37:29.400Z,87.47
2022-07-27T22:42:30.490Z,88.32
2022-07-27T22:47:31.754Z,86.46
2022-07-27T22:52:33.908Z,85.42
2022-07-27T22:57:34.060Z,84.91
2022-07-27T23:02:33.227Z,85.11
2022-07-27T23:07:35.351Z,84.91
2022-07-27T23:12:34.527Z,84.91
2022-07-27T23:17:35.748Z,86.16
2022-07-27T23:23:19.887Z,85.76
2022-07-27T23:27:37.593Z,86.06
2022-07-27T23:32:38.710Z,86.57
2022-07-27T23:37:40.815Z,86.51
2022-07-27T23:42:40.947Z,86.21
2022-07-27T23:47:40.058Z,87.65
2022-07-27T23:52:41.153Z,89.01
2022-07-27T23:57:42.269Z,89.01
